Time;durP1;ratioP1;P1;durP2;ratioP2;P2;SDS_P1;SDS_P2;PMS_P1;PMS_P2;Temp;Humidity;BMP_temperature;BMP_pressure;BME280_temperature;BME280_humidity;BME280_pressure;Samples;Min_cycle;Max_cycle;Signal;HPM_P1;HPM_P2
2023/02/11 00:00:59;;;;;;;1.05;1.00;;;;;;;;;;5069459;28;20386;-71
2023/02/11 00:03:28;;;;;;;1.88;1.52;;;;;;;;;;5070639;28;20067;-72
2023/02/11 00:06:01;;;;;;;10.05;1.83;;;;;;;;;;5068627;28;20040;-71
2023/02/11 00:08:29;;;;;;;3.15;1.42;;;;;;;;;;5072080;28;20503;-71
2023/02/11 00:10:58;;;;;;;2.22;2.03;;;;;;;;;;5070128;28;20063;-71
2023/02/11 00:13:26;;;;;;;2.70;2.53;;;;;;;;;;5072554;28;20056;-71
2023/02/11 00:15:55;;;;;;;1.27;1.17;;;;;;;;;;5061776;28;20405;-71
2023/02/11 00:18:24;;;;;;;2.25;2.05;;;;;;;;;;5069141;28;20048;-71
2023/02/11 00:20:52;;;;;;;2.42;1.90;;;;;;;;;;5076423;28;20139;-72
2023/02/11 00:23:22;;;;;;;7.35;2.22;;;;;;;;;;5068952;28;20045;-71
2023/02/11 00:25:50;;;;;;;0.82;0.82;;;;;;;;;;5070196;28;20561;-71
2023/02/11 00:28:18;;;;;;;1.17;1.17;;;;;;;;;;5053806;28;20058;-71
2023/02/11 00:30:54;;;;;;;2.13;1.33;;;;;;;;;;5072267;28;20044;-71
2023/02/11 00:33:22;;;;;;;1.30;1.20;;;;;;;;;;5073397;28;20041;-71
2023/02/11 00:35:51;;;;;;;1.05;1.05;;;;;;;;;;5080383;28;20044;-71
2023/02/11 00:38:21;;;;;;;3.90;0.88;;;;;;;;;;5072395;28;20044;-71
2023/02/11 00:40:49;;;;;;;2.28;1.10;;;;;;;;;;5076063;28;20045;-71
2023/02/11 00:43:17;;;;;;;1.80;1.70;;;;;;;;;;5068765;28;20059;-71
2023/02/11 00:45:46;;;;;;;0.57;0.57;;;;;;;;;;5073380;28;20052;-71
2023/02/11 00:48:14;;;;;;;1.02;0.90;;;;;;;;;;5071980;28;20040;-71
2023/02/11 00:50:42;;;;;;;1.30;0.90;;;;;;;;;;5077279;28;20052;-72
2023/02/11 00:53:11;;;;;;;1.63;0.95;;;;;;;;;;5068050;28;20064;-71
2023/02/11 00:55:40;;;;;;;0.55;0.55;;;;;;;;;;5070194;28;20059;-71
2023/02/11 00:58:08;;;;;;;2.17;1.20;;;;;;;;;;5074567;28;20052;-71
2023/02/11 01:00:37;;;;;;;0.70;0.70;;;;;;;;;;5086523;28;20519;-71
2023/02/11 01:03:05;;;;;;;1.17;1.15;;;;;;;;;;5068481;28;20059;-71
2023/02/11 01:05:34;;;;;;;2.72;2.53;;;;;;;;;;5075001;28;20488;-72
2023/02/11 01:08:02;;;;;;;1.20;1.13;;;;;;;;;;5072687;28;20048;-71
2023/02/11 01:10:30;;;;;;;0.68;0.68;;;;;;;;;;5065382;28;20041;-72
2023/02/11 01:13:00;;;;;;;2.60;1.15;;;;;;;;;;5067031;28;20497;-71
2023/02/11 01:15:28;;;;;;;3.22;1.52;;;;;;;;;;5075261;28;20041;-72
2023/02/11 01:17:57;;;;;;;2.47;1.17;;;;;;;;;;5072069;28;20083;-71
2023/02/11 01:20:27;;;;;;;1.85;1.75;;;;;;;;;;5068674;28;20044;-71
2023/02/11 01:22:55;;;;;;;1.60;1.48;;;;;;;;;;5070629;28;20499;-71
2023/02/11 01:25:23;;;;;;;1.02;0.75;;;;;;;;;;5075024;28;20051;-71
2023/02/11 01:27:51;;;;;;;1.05;0.98;;;;;;;;;;5067640;28;20042;-71
2023/02/11 01:30:21;;;;;;;0.65;0.65;;;;;;;;;;5071562;28;20044;-71
2023/02/11 01:32:49;;;;;;;1.58;1.20;;;;;;;;;;5071548;28;20068;-71
2023/02/11 01:35:18;;;;;;;2.28;1.88;;;;;;;;;;5068098;28;20087;-71
2023/02/11 01:37:46;;;;;;;4.05;1.45;;;;;;;;;;5070826;28;20150;-71
2023/02/11 01:40:17;;;;;;;0.43;0.43;;;;;;;;;;5069171;28;20048;-71
2023/02/11 01:42:45;;;;;;;0.65;0.65;;;;;;;;;;5061402;28;20485;-71
2023/02/11 01:45:36;;;;;;;1.58;1.02;;;;;;;;;;5069896;28;20069;-72
2023/02/11 01:48:06;;;;;;;1.38;1.10;;;;;;;;;;5069089;28;20061;-71
2023/02/11 01:50:34;;;;;;;0.40;0.40;;;;;;;;;;5075620;28;20807;-71
2023/02/11 01:58:33;;;;;;;6.50;2.00;;;;;;;;;;5070726;28;20041;-72
2023/02/11 02:01:02;;;;;;;2.33;1.05;;;;;;;;;;5070525;28;20048;-71
2023/02/11 02:03:34;;;;;;;2.58;1.63;;;;;;;;;;5073457;28;20055;-71
2023/02/11 02:06:07;;;;;;;1.40;1.25;;;;;;;;;;5069018;28;20040;-71
2023/02/11 02:08:37;;;;;;;1.30;1.15;;;;;;;;;;5081626;28;20621;-71
2023/02/11 02:11:05;;;;;;;3.38;1.52;;;;;;;;;;5064544;28;20063;-71
2023/02/11 02:13:35;;;;;;;1.58;1.30;;;;;;;;;;5072429;28;20045;-71
2023/02/11 02:16:04;;;;;;;0.70;0.70;;;;;;;;;;5073821;28;20048;-71
2023/02/11 02:18:40;;;;;;;3.88;1.55;;;;;;;;;;5074010;28;20133;-72
2023/02/11 02:21:23;;;;;;;2.28;1.55;;;;;;;;;;5075956;28;20148;-72
2023/02/11 02:24:06;;;;;;;0.50;0.50;;;;;;;;;;5074253;28;20056;-71
2023/02/11 02:26:53;;;;;;;1.05;1.05;;;;;;;;;;5045831;28;20049;-71
2023/02/11 02:29:49;;;;;;;0.93;0.75;;;;;;;;;;5039958;28;20412;-71
2023/02/11 02:32:23;;;;;;;3.03;0.60;;;;;;;;;;5067326;28;20048;-71
2023/02/11 02:34:54;;;;;;;0.38;0.38;;;;;;;;;;5071098;28;20047;-71
2023/02/11 02:37:25;;;;;;;0.40;0.40;;;;;;;;;;5073574;28;20041;-71
2023/02/11 02:39:53;;;;;;;0.65;0.60;;;;;;;;;;5075869;28;20516;-71
2023/02/11 02:42:21;;;;;;;3.03;1.02;;;;;;;;;;5072677;28;20485;-71
2023/02/11 02:44:50;;;;;;;0.88;0.88;;;;;;;;;;5075818;28;20040;-73
2023/02/11 02:47:18;;;;;;;1.73;1.10;;;;;;;;;;5068961;28;20429;-71
2023/02/11 02:49:48;;;;;;;0.35;0.35;;;;;;;;;;5077630;28;20044;-71
2023/02/11 02:52:19;;;;;;;0.22;0.22;;;;;;;;;;5072470;28;20071;-71
2023/02/11 02:55:05;;;;;;;0.50;0.50;;;;;;;;;;5074801;28;20485;-71
2023/02/11 02:57:37;;;;;;;8.18;1.08;;;;;;;;;;5072380;28;20059;-71
2023/02/11 03:00:13;;;;;;;1.85;0.95;;;;;;;;;;5077115;28;20412;-72
2023/02/11 03:02:46;;;;;;;0.85;0.85;;;;;;;;;;5073342;28;20040;-71
2023/02/11 03:05:18;;;;;;;0.63;0.63;;;;;;;;;;5070720;28;20094;-71
2023/02/11 03:07:49;;;;;;;0.52;0.52;;;;;;;;;;5072791;28;20044;-71
2023/02/11 03:10:20;;;;;;;2.30;0.95;;;;;;;;;;5065956;28;20053;-71
2023/02/11 03:12:48;;;;;;;0.52;0.52;;;;;;;;;;5074601;28;20056;-71
2023/02/11 03:15:18;;;;;;;4.88;1.40;;;;;;;;;;5073674;28;20051;-71
2023/02/11 03:17:48;;;;;;;0.73;0.73;;;;;;;;;;5074856;28;20465;-71
2023/02/11 03:20:19;;;;;;;0.85;0.85;;;;;;;;;;5076529;28;20051;-71
2023/02/11 03:22:49;;;;;;;0.80;0.80;;;;;;;;;;5075788;28;20051;-71
2023/02/11 03:25:17;;;;;;;1.40;1.30;;;;;;;;;;5071848;28;20047;-72
2023/02/11 03:27:51;;;;;;;0.55;0.55;;;;;;;;;;5077508;28;20043;-71
2023/02/11 03:30:22;;;;;;;0.40;0.40;;;;;;;;;;5075715;28;20067;-71
2023/02/11 03:32:52;;;;;;;0.82;0.82;;;;;;;;;;5068766;28;20063;-70
2023/02/11 03:35:24;;;;;;;4.88;0.95;;;;;;;;;;5066016;28;20056;-71
2023/02/11 03:37:54;;;;;;;0.52;0.52;;;;;;;;;;5073232;28;20063;-71
2023/02/11 03:40:24;;;;;;;0.50;0.50;;;;;;;;;;5073424;28;20051;-71
2023/02/11 03:42:55;;;;;;;0.90;0.90;;;;;;;;;;5082172;28;20043;-71
2023/02/11 03:45:24;;;;;;;0.70;0.70;;;;;;;;;;5073680;28;20055;-71
2023/02/11 03:47:54;;;;;;;0.47;0.47;;;;;;;;;;5069490;28;20037;-71
2023/02/11 03:50:25;;;;;;;1.85;0.82;;;;;;;;;;5079738;28;20040;-71
2023/02/11 03:52:54;;;;;;;0.30;0.30;;;;;;;;;;5078433;28;20055;-71
2023/02/11 03:55:24;;;;;;;1.00;0.85;;;;;;;;;;5073187;28;20041;-72
2023/02/11 03:57:52;;;;;;;1.80;0.65;;;;;;;;;;5067949;28;20036;-71
2023/02/11 04:00:21;;;;;;;3.13;0.70;;;;;;;;;;5079295;28;20771;-71
2023/02/11 04:02:49;;;;;;;2.28;0.77;;;;;;;;;;5072602;28;20045;-71
2023/02/11 04:05:17;;;;;;;0.60;0.60;;;;;;;;;;5073630;28;20083;-71
2023/02/11 04:07:47;;;;;;;0.63;0.63;;;;;;;;;;5074613;28;20052;-71
2023/02/11 04:10:15;;;;;;;0.70;0.65;;;;;;;;;;5071961;28;20106;-71
2023/02/11 04:12:43;;;;;;;0.77;0.57;;;;;;;;;;5074761;28;20515;-71
2023/02/11 04:15:12;;;;;;;0.30;0.30;;;;;;;;;;5077215;28;20045;-71
2023/02/11 04:17:40;;;;;;;0.80;0.80;;;;;;;;;;5072141;28;20410;-71
2023/02/11 04:20:09;;;;;;;0.73;0.65;;;;;;;;;;5074148;28;20055;-71
2023/02/11 04:22:37;;;;;;;0.65;0.65;;;;;;;;;;5068643;28;20048;-70
2023/02/11 04:25:08;;;;;;;1.58;1.13;;;;;;;;;;5080142;28;20058;-71
2023/02/11 04:27:36;;;;;;;0.82;0.82;;;;;;;;;;5069540;28;20110;-70
2023/02/11 04:30:05;;;;;;;0.73;0.57;;;;;;;;;;5073742;28;20048;-71
2023/02/11 04:32:33;;;;;;;0.30;0.30;;;;;;;;;;5072667;28;20055;-71
2023/02/11 04:35:02;;;;;;;0.70;0.70;;;;;;;;;;5073203;28;20497;-71
2023/02/11 04:37:30;;;;;;;0.40;0.40;;;;;;;;;;5074370;28;20041;-71
2023/02/11 04:39:58;;;;;;;0.55;0.55;;;;;;;;;;5072390;28;20397;-70
2023/02/11 04:42:28;;;;;;;0.65;0.65;;;;;;;;;;5075296;28;20045;-71
2023/02/11 04:44:56;;;;;;;0.30;0.30;;;;;;;;;;5079927;28;20051;-71
2023/02/11 04:47:25;;;;;;;0.73;0.73;;;;;;;;;;5071481;28;20048;-71
2023/02/11 04:49:53;;;;;;;0.88;0.80;;;;;;;;;;5074254;28;20040;-71
2023/02/11 04:52:21;;;;;;;0.43;0.43;;;;;;;;;;5072588;28;20044;-70
2023/02/11 04:54:49;;;;;;;0.50;0.50;;;;;;;;;;5075629;28;20075;-71
2023/02/11 04:57:18;;;;;;;0.60;0.60;;;;;;;;;;5067893;28;20469;-71
2023/02/11 04:59:47;;;;;;;0.30;0.30;;;;;;;;;;5072829;28;20044;-71
2023/02/11 05:02:16;;;;;;;0.73;0.73;;;;;;;;;;5072393;28;20052;-71
2023/02/11 05:04:44;;;;;;;0.43;0.43;;;;;;;;;;5076422;28;20048;-71
2023/02/11 05:07:12;;;;;;;0.57;0.57;;;;;;;;;;5072461;28;20082;-70
2023/02/11 05:09:40;;;;;;;0.77;0.77;;;;;;;;;;5074175;28;20043;-71
2023/02/11 05:12:09;;;;;;;0.40;0.40;;;;;;;;;;5082485;28;20138;-71
2023/02/11 05:14:37;;;;;;;3.20;0.65;;;;;;;;;;5072981;28;20513;-71
2023/02/11 05:17:07;;;;;;;0.70;0.70;;;;;;;;;;5079221;28;20048;-71
2023/02/11 05:19:35;;;;;;;1.55;0.82;;;;;;;;;;5070294;28;20048;-71
2023/02/11 05:22:03;;;;;;;0.43;0.43;;;;;;;;;;5072345;28;20047;-71
2023/02/11 05:24:32;;;;;;;0.57;0.57;;;;;;;;;;5072490;28;20044;-71
2023/02/11 05:27:00;;;;;;;0.40;0.40;;;;;;;;;;5084121;28;20052;-71
2023/02/11 05:29:29;;;;;;;0.50;0.50;;;;;;;;;;5076306;28;20047;-71
2023/02/11 05:31:57;;;;;;;0.60;0.60;;;;;;;;;;5072176;28;20408;-71
2023/02/11 05:34:26;;;;;;;0.38;0.38;;;;;;;;;;5070817;28;20048;-71
2023/02/11 05:36:55;;;;;;;0.75;0.75;;;;;;;;;;5069122;28;20048;-71
2023/02/11 05:39:23;;;;;;;1.38;0.60;;;;;;;;;;5070100;28;20053;-71
2023/02/11 05:41:51;;;;;;;0.30;0.30;;;;;;;;;;5071336;28;20485;-71
2023/02/11 05:44:20;;;;;;;0.40;0.40;;;;;;;;;;5070756;28;20072;-71
2023/02/11 05:46:49;;;;;;;0.80;0.77;;;;;;;;;;5074497;28;20050;-71
2023/02/11 05:49:17;;;;;;;0.40;0.40;;;;;;;;;;5077075;28;20048;-71
2023/02/11 05:51:46;;;;;;;0.40;0.40;;;;;;;;;;5074055;28;20047;-71
2023/02/11 05:54:15;;;;;;;0.57;0.43;;;;;;;;;;5078606;28;20048;-71
2023/02/11 05:56:44;;;;;;;0.73;0.52;;;;;;;;;;5075833;28;20068;-71
2023/02/11 05:59:13;;;;;;;8.10;1.00;;;;;;;;;;5070933;28;20048;-71
2023/02/11 06:01:42;;;;;;;0.60;0.55;;;;;;;;;;5071637;28;20088;-71
2023/02/11 06:04:10;;;;;;;1.85;0.80;;;;;;;;;;5079779;28;20049;-71
2023/02/11 06:06:38;;;;;;;8.05;1.58;;;;;;;;;;5077896;28;20060;-71
2023/02/11 06:09:08;;;;;;;0.75;0.75;;;;;;;;;;5082420;28;20055;-71
2023/02/11 06:11:36;;;;;;;0.82;0.82;;;;;;;;;;5077216;28;20052;-71
2023/02/11 06:14:04;;;;;;;0.57;0.57;;;;;;;;;;5070932;28;20584;-71
2023/02/11 06:16:32;;;;;;;2.67;0.70;;;;;;;;;;5068472;28;20048;-71
2023/02/11 06:19:01;;;;;;;0.85;0.85;;;;;;;;;;5082555;28;20042;-71
2023/02/11 06:21:29;;;;;;;0.95;0.95;;;;;;;;;;5075034;28;20424;-71
2023/02/11 06:24:12;;;;;;;2.08;0.95;;;;;;;;;;5080155;28;20048;-71
2023/02/11 06:26:41;;;;;;;1.33;1.13;;;;;;;;;;5070534;28;20055;-71
2023/02/11 06:29:09;;;;;;;0.50;0.50;;;;;;;;;;5068297;28;20044;-71
2023/02/11 06:31:38;;;;;;;1.60;1.52;;;;;;;;;;5078966;28;20481;-72
2023/02/11 06:34:07;;;;;;;0.38;0.38;;;;;;;;;;5065011;28;20148;-72
2023/02/11 06:36:35;;;;;;;0.32;0.32;;;;;;;;;;5071439;28;20048;-72
2023/02/11 06:39:04;;;;;;;0.57;0.57;;;;;;;;;;5062714;28;20047;-71
2023/02/11 06:41:33;;;;;;;1.10;0.40;;;;;;;;;;5077789;28;20044;-71
2023/02/11 06:44:02;;;;;;;1.00;0.95;;;;;;;;;;5073354;28;20044;-71
2023/02/11 06:46:30;;;;;;;0.30;0.30;;;;;;;;;;5071370;28;20040;-71
2023/02/11 06:48:58;;;;;;;0.28;0.28;;;;;;;;;;5059982;28;20056;-71
2023/02/11 06:51:27;;;;;;;7.47;0.80;;;;;;;;;;5068681;28;20051;-71
2023/02/11 06:53:55;;;;;;;1.88;1.10;;;;;;;;;;5061310;28;20048;-71
2023/02/11 06:56:26;;;;;;;0.65;0.50;;;;;;;;;;5047122;28;20405;-70
2023/02/11 06:58:56;;;;;;;1.05;1.02;;;;;;;;;;5064091;28;20396;-71
2023/02/11 07:01:25;;;;;;;0.68;0.68;;;;;;;;;;5070960;28;20041;-71
2023/02/11 07:03:53;;;;;;;0.30;0.30;;;;;;;;;;5060523;28;20070;-71
2023/02/11 07:06:23;;;;;;;1.23;1.23;;;;;;;;;;5071740;28;20053;-71
2023/02/11 07:08:51;;;;;;;0.40;0.40;;;;;;;;;;5067444;28;20055;-71
2023/02/11 07:11:23;;;;;;;0.40;0.40;;;;;;;;;;5073382;28;20051;-71
2023/02/11 07:13:51;;;;;;;0.50;0.50;;;;;;;;;;5067179;28;20048;-72
2023/02/11 07:16:21;;;;;;;0.73;0.73;;;;;;;;;;5071105;28;20051;-72
2023/02/11 07:18:50;;;;;;;0.40;0.40;;;;;;;;;;5069950;28;20040;-70
2023/02/11 07:21:19;;;;;;;0.30;0.30;;;;;;;;;;5070620;28;20049;-71
2023/02/11 07:23:48;;;;;;;0.55;0.55;;;;;;;;;;5067605;28;20055;-70
2023/02/11 07:26:17;;;;;;;0.50;0.50;;;;;;;;;;5067279;28;20489;-71
2023/02/11 07:28:46;;;;;;;0.30;0.30;;;;;;;;;;5072026;28;20044;-71
2023/02/11 07:31:15;;;;;;;1.00;0.93;;;;;;;;;;5066333;28;20923;-70
2023/02/11 07:33:45;;;;;;;4.25;0.80;;;;;;;;;;5068449;28;20041;-71
2023/02/11 07:36:14;;;;;;;2.10;0.45;;;;;;;;;;5068712;28;20051;-71
2023/02/11 07:38:43;;;;;;;1.05;0.77;;;;;;;;;;5068898;28;20076;-71
2023/02/11 07:41:12;;;;;;;1.45;0.88;;;;;;;;;;5071144;28;20044;-70
2023/02/11 07:43:41;;;;;;;3.05;1.05;;;;;;;;;;5067874;28;20528;-70
2023/02/11 07:46:11;;;;;;;0.47;0.43;;;;;;;;;;5070575;28;20055;-70
2023/02/11 07:48:39;;;;;;;0.88;0.88;;;;;;;;;;5068828;28;20040;-71
2023/02/11 07:51:10;;;;;;;0.22;0.22;;;;;;;;;;5067350;28;20515;-72
2023/02/11 07:53:39;;;;;;;1.70;0.68;;;;;;;;;;5074837;28;20048;-71
2023/02/11 07:56:07;;;;;;;0.55;0.55;;;;;;;;;;5070886;28;20051;-71
2023/02/11 07:58:36;;;;;;;1.55;0.65;;;;;;;;;;5073411;28;20052;-72
2023/02/11 08:01:06;;;;;;;0.57;0.57;;;;;;;;;;5074644;28;20044;-76
2023/02/11 08:03:35;;;;;;;0.70;0.70;;;;;;;;;;5070136;28;20155;-75
2023/02/11 08:06:04;;;;;;;3.38;0.95;;;;;;;;;;5075652;28;20056;-76
2023/02/11 08:08:34;;;;;;;0.55;0.55;;;;;;;;;;5068125;28;20044;-75
2023/02/11 08:11:06;;;;;;;1.00;1.00;;;;;;;;;;5069028;28;20048;-75
2023/02/11 08:13:34;;;;;;;1.00;0.98;;;;;;;;;;5061797;28;20048;-75
2023/02/11 08:16:03;;;;;;;1.15;1.08;;;;;;;;;;5060810;28;20442;-74
2023/02/11 08:18:31;;;;;;;0.30;0.30;;;;;;;;;;5064816;28;20063;-75
2023/02/11 08:21:04;;;;;;;0.57;0.57;;;;;;;;;;5069130;28;20060;-75
2023/02/11 08:23:34;;;;;;;2.53;1.13;;;;;;;;;;5077119;28;20044;-76
2023/02/11 08:26:03;;;;;;;0.40;0.40;;;;;;;;;;5069516;28;20079;-75
2023/02/11 08:28:31;;;;;;;6.47;1.23;;;;;;;;;;5071126;28;20047;-75
2023/02/11 08:31:05;;;;;;;0.75;0.75;;;;;;;;;;5080704;28;20113;-75
2023/02/11 08:33:33;;;;;;;1.20;0.45;;;;;;;;;;5070894;28;20413;-74
2023/02/11 08:36:02;;;;;;;0.73;0.73;;;;;;;;;;5071732;28;20040;-75
2023/02/11 08:38:30;;;;;;;1.10;1.10;;;;;;;;;;5070542;28;20421;-75
2023/02/11 08:41:01;;;;;;;1.42;1.15;;;;;;;;;;5062220;28;20052;-74
2023/02/11 08:43:30;;;;;;;1.45;1.35;;;;;;;;;;5063209;28;20044;-74
2023/02/11 08:45:58;;;;;;;1.20;1.02;;;;;;;;;;5072797;28;20417;-76
2023/02/11 08:48:29;;;;;;;4.53;2.15;;;;;;;;;;5068611;28;20442;-75
2023/02/11 08:50:58;;;;;;;2.75;1.02;;;;;;;;;;5072282;28;20064;-76
2023/02/11 08:53:26;;;;;;;4.10;1.90;;;;;;;;;;5075054;28;20066;-73
2023/02/11 08:55:55;;;;;;;2.50;0.88;;;;;;;;;;5066521;28;20055;-75
2023/02/11 08:58:25;;;;;;;1.00;1.00;;;;;;;;;;5067941;28;20049;-75
2023/02/11 09:00:53;;;;;;;1.98;1.35;;;;;;;;;;5078041;28;20054;-75
2023/02/11 09:03:22;;;;;;;2.15;1.25;;;;;;;;;;5070546;28;20044;-76
2023/02/11 09:05:52;;;;;;;5.85;1.23;;;;;;;;;;5075890;28;20055;-76
2023/02/11 09:08:20;;;;;;;4.85;2.03;;;;;;;;;;5071656;28;20056;-76
2023/02/11 09:10:49;;;;;;;1.77;1.52;;;;;;;;;;5068684;28;20084;-73
2023/02/11 09:13:18;;;;;;;2.50;1.48;;;;;;;;;;5070697;28;20382;-76
2023/02/11 09:15:47;;;;;;;2.95;1.83;;;;;;;;;;5078010;28;20056;-79
2023/02/11 16:01:08;;;;;;;2.88;2.45;;;;;;;;;;5110595;27;20162;-76
2023/02/11 16:03:37;;;;;;;6.05;2.50;;;;;;;;;;5103264;28;20405;-76
2023/02/11 16:06:20;;;;;;;7.72;2.92;;;;;;;;;;5094218;28;20119;-76
2023/02/11 16:09:02;;;;;;;17.63;4.05;;;;;;;;;;5098379;27;20067;-75
2023/02/11 16:11:31;;;;;;;11.52;3.45;;;;;;;;;;5106061;28;20051;-75
2023/02/11 16:14:01;;;;;;;3.75;2.25;;;;;;;;;;5108075;28;20147;-76
2023/02/11 16:16:34;;;;;;;5.35;2.55;;;;;;;;;;5108027;28;20138;-75
2023/02/11 16:19:03;;;;;;;8.73;3.20;;;;;;;;;;5083332;27;20053;-76
2023/02/11 16:21:37;;;;;;;6.32;3.10;;;;;;;;;;5074093;28;20373;-75
2023/02/11 16:24:07;;;;;;;3.78;1.92;;;;;;;;;;5073483;28;20057;-76
2023/02/11 16:26:38;;;;;;;4.40;1.90;;;;;;;;;;5068021;28;20048;-77
2023/02/11 16:29:07;;;;;;;4.93;2.50;;;;;;;;;;5072685;28;20044;-74
2023/02/11 16:31:38;;;;;;;21.15;2.90;;;;;;;;;;5071402;28;20040;-77
2023/02/11 16:34:13;;;;;;;9.25;3.13;;;;;;;;;;5070624;28;20082;-76
2023/02/11 16:36:41;;;;;;;;;;;;;;;;;;5076329;28;20127;-76
2023/02/11 16:39:10;;;;;;;6.68;3.13;;;;;;;;;;5091331;28;19928;-76
2023/02/11 16:41:38;;;;;;;10.13;2.58;;;;;;;;;;5092337;28;20041;-76
2023/02/11 16:44:07;;;;;;;12.70;3.75;;;;;;;;;;5090412;28;20052;-76
2023/02/11 16:46:37;;;;;;;6.85;2.65;;;;;;;;;;5093227;28;20068;-76
2023/02/11 16:49:10;;;;;;;5.97;2.60;;;;;;;;;;5071620;27;20049;-76
2023/02/11 16:51:39;;;;;;;8.32;2.47;;;;;;;;;;5069671;28;20464;-77
2023/02/11 16:54:08;;;;;;;9.25;3.42;;;;;;;;;;5069442;28;20136;-77
2023/02/11 16:56:36;;;;;;;10.10;3.13;;;;;;;;;;5075717;28;20070;-76
2023/02/11 16:59:05;;;;;;;7.47;3.13;;;;;;;;;;5073208;28;20063;-76
2023/02/11 17:01:34;;;;;;;6.28;2.75;;;;;;;;;;5074888;28;20040;-77
2023/02/11 17:04:02;;;;;;;9.40;2.55;;;;;;;;;;5076847;28;20048;-76
2023/02/11 17:06:33;;;;;;;6.93;2.50;;;;;;;;;;5075604;28;20131;-78
2023/02/11 17:09:01;;;;;;;6.68;2.90;;;;;;;;;;5079700;28;20052;-78
2023/02/11 17:11:30;;;;;;;6.20;2.35;;;;;;;;;;5065192;28;20067;-76
2023/02/11 17:13:58;;;;;;;7.53;3.78;;;;;;;;;;5059572;28;20051;-76
2023/02/11 17:16:28;;;;;;;7.88;3.05;;;;;;;;;;5067617;28;20139;-76
2023/02/11 17:18:57;;;;;;;6.15;3.17;;;;;;;;;;5068393;28;20460;-73
2023/02/11 17:21:25;;;;;;;4.47;3.03;;;;;;;;;;5066469;28;20132;-75
2023/02/11 17:23:58;;;;;;;11.93;3.72;;;;;;;;;;5058552;28;20052;-76
2023/02/11 17:26:26;;;;;;;7.78;3.25;;;;;;;;;;5057818;28;20044;-76
2023/02/11 17:28:55;;;;;;;8.23;2.88;;;;;;;;;;5060543;28;20055;-76
2023/02/11 17:31:23;;;;;;;8.00;3.63;;;;;;;;;;5058325;28;20509;-76
2023/02/11 17:33:52;;;;;;;9.77;3.88;;;;;;;;;;5072110;28;20049;-77
2023/02/11 17:36:20;;;;;;;5.80;2.95;;;;;;;;;;5060133;28;20140;-77
2023/02/11 17:38:50;;;;;;;6.20;3.35;;;;;;;;;;5078519;28;20044;-76
2023/02/11 17:41:19;;;;;;;6.25;2.55;;;;;;;;;;5076886;28;20048;-76
2023/02/11 17:43:48;;;;;;;5.65;2.33;;;;;;;;;;5085067;28;20404;-76
2023/02/11 17:46:16;;;;;;;7.95;3.58;;;;;;;;;;5079313;28;20048;-76
2023/02/11 17:48:45;;;;;;;9.10;2.92;;;;;;;;;;5071102;28;20060;-77
2023/02/11 17:51:22;;;;;;;12.70;3.22;;;;;;;;;;5071146;28;20088;-76
2023/02/11 17:53:50;;;;;;;9.48;3.60;;;;;;;;;;5073179;28;20048;-75
2023/02/11 17:56:20;;;;;;;5.38;3.95;;;;;;;;;;5068652;28;20402;-75
2023/02/11 17:58:48;;;;;;;14.48;4.20;;;;;;;;;;5084235;28;20070;-75
2023/02/11 18:01:17;;;;;;;7.97;3.13;;;;;;;;;;5074749;28;20044;-71
2023/02/11 18:03:45;;;;;;;6.05;3.13;;;;;;;;;;5077455;28;20052;-73
2023/02/11 18:06:13;;;;;;;5.63;1.48;;;;;;;;;;5083257;28;20044;-73
2023/02/11 18:08:42;;;;;;;6.43;2.70;;;;;;;;;;5081502;28;20127;-73
2023/02/11 18:11:10;;;;;;;11.32;4.30;;;;;;;;;;5083742;28;20052;-72
2023/02/11 18:13:40;;;;;;;6.70;3.05;;;;;;;;;;5080271;28;20672;-74
2023/02/11 18:16:14;;;;;;;2.78;2.30;;;;;;;;;;5086787;28;20074;-73
2023/02/11 18:18:43;;;;;;;10.32;3.70;;;;;;;;;;5070036;28;20400;-75
2023/02/11 18:21:13;;;;;;;9.55;3.90;;;;;;;;;;5071102;28;20497;-72
2023/02/11 18:23:42;;;;;;;13.18;3.33;;;;;;;;;;5069710;28;20040;-73
2023/02/11 18:26:11;;;;;;;9.68;2.88;;;;;;;;;;5065733;28;20140;-74
2023/02/11 18:28:41;;;;;;;9.18;4.07;;;;;;;;;;5086602;28;20048;-73
2023/02/11 18:31:13;;;;;;;6.15;2.65;;;;;;;;;;5091502;28;20075;-74
2023/02/11 18:33:42;;;;;;;6.95;4.13;;;;;;;;;;5084335;28;20083;-74
2023/02/11 18:36:12;;;;;;;7.03;2.40;;;;;;;;;;5089820;28;20044;-74
2023/02/11 18:38:42;;;;;;;4.90;3.00;;;;;;;;;;5087605;28;20044;-74
2023/02/11 18:41:11;;;;;;;8.90;3.45;;;;;;;;;;5085289;28;20102;-74
2023/02/11 18:43:41;;;;;;;6.68;3.95;;;;;;;;;;5077939;28;20052;-73
2023/02/11 18:46:15;;;;;;;7.95;2.55;;;;;;;;;;5076029;28;20071;-72
2023/02/11 18:48:44;;;;;;;5.25;2.42;;;;;;;;;;5060507;28;20052;-73
2023/02/11 18:51:14;;;;;;;8.52;2.55;;;;;;;;;;5056926;28;20083;-71
2023/02/11 18:53:43;;;;;;;12.88;3.92;;;;;;;;;;5057610;28;20499;-74
2023/02/11 18:56:12;;;;;;;10.30;2.63;;;;;;;;;;5056173;28;20048;-73
2023/02/11 18:58:42;;;;;;;5.00;2.85;;;;;;;;;;5057089;28;20102;-73
2023/02/11 19:01:12;;;;;;;10.18;4.25;;;;;;;;;;5057655;28;20059;-73
2023/02/11 19:03:40;;;;;;;7.07;1.80;;;;;;;;;;5054737;28;20044;-74
2023/02/11 19:06:13;;;;;;;13.27;3.15;;;;;;;;;;5063319;28;20084;-74
2023/02/11 19:08:42;;;;;;;5.75;1.63;;;;;;;;;;5068498;28;20055;-73
2023/02/11 19:11:10;;;;;;;8.68;3.05;;;;;;;;;;5060340;28;20061;-73
2023/02/11 19:20:45;;;;;;;10.13;4.35;;;;;;;;;;5069741;28;20062;-74
2023/02/11 19:23:13;;;;;;;4.75;2.42;;;;;;;;;;5065056;28;20082;-74
2023/02/11 19:25:45;;;;;;;8.43;2.95;;;;;;;;;;5066695;28;20045;-75
2023/02/11 19:28:14;;;;;;;5.10;2.72;;;;;;;;;;5055389;28;20045;-74
2023/02/11 19:30:43;;;;;;;8.27;3.75;;;;;;;;;;5062408;28;20041;-74
2023/02/11 19:33:11;;;;;;;10.90;3.50;;;;;;;;;;5056628;28;20454;-73
2023/02/11 19:35:39;;;;;;;10.40;3.20;;;;;;;;;;5061907;28;20053;-74
2023/02/11 19:38:19;;;;;;;7.78;2.95;;;;;;;;;;5058855;28;20040;-74
2023/02/11 19:40:55;;;;;;;6.65;4.13;;;;;;;;;;5060712;28;20438;-74
2023/02/11 19:43:36;;;;;;;3.70;2.75;;;;;;;;;;5059860;28;20047;-74
2023/02/11 19:49:21;;;;;;;8.82;2.55;;;;;;;;;;5062644;28;20075;-74
2023/02/11 19:51:50;;;;;;;7.28;3.15;;;;;;;;;;5055852;28;20480;-74
2023/02/11 19:54:20;;;;;;;9.40;3.65;;;;;;;;;;5053202;28;20040;-74
2023/02/11 19:56:49;;;;;;;5.50;2.53;;;;;;;;;;5059779;28;20049;-74
2023/02/11 19:59:17;;;;;;;18.92;3.08;;;;;;;;;;5073431;28;20044;-74
2023/02/11 20:01:47;;;;;;;6.40;2.88;;;;;;;;;;5081395;28;20048;-74
2023/02/11 20:04:16;;;;;;;7.75;3.08;;;;;;;;;;5077783;28;20468;-74
2023/02/11 20:06:47;;;;;;;3.65;2.75;;;;;;;;;;5081786;28;20049;-73
2023/02/11 20:09:15;;;;;;;7.43;2.53;;;;;;;;;;5061306;28;20060;-74
2023/02/11 20:11:45;;;;;;;6.50;2.75;;;;;;;;;;5059512;28;20739;-74
2023/02/11 20:14:14;;;;;;;10.23;4.00;;;;;;;;;;5064480;28;20045;-75
2023/02/11 20:16:43;;;;;;;7.15;3.25;;;;;;;;;;5066712;28;20052;-74
2023/02/11 20:19:17;;;;;;;8.90;3.38;;;;;;;;;;5084357;28;20084;-74
2023/02/11 20:21:46;;;;;;;7.05;2.88;;;;;;;;;;5081689;28;20063;-74
2023/02/11 20:24:15;;;;;;;11.02;3.95;;;;;;;;;;5083863;28;20040;-74
2023/02/11 20:26:47;;;;;;;7.10;2.65;;;;;;;;;;5076644;28;20044;-73
2023/02/11 20:29:16;;;;;;;5.63;2.83;;;;;;;;;;5072091;28;20052;-74
2023/02/11 20:31:44;;;;;;;6.88;2.97;;;;;;;;;;5082774;28;20052;-74
2023/02/11 20:34:13;;;;;;;5.53;2.67;;;;;;;;;;5076453;28;20099;-74
2023/02/11 20:36:41;;;;;;;6.28;3.03;;;;;;;;;;5086934;28;20048;-74
2023/02/11 20:39:15;;;;;;;7.40;3.33;;;;;;;;;;5054675;28;20043;-74
2023/02/11 20:41:45;;;;;;;6.55;3.10;;;;;;;;;;5058010;28;20501;-74
2023/02/11 20:44:14;;;;;;;7.65;3.38;;;;;;;;;;5061181;28;20045;-74
2023/02/11 20:46:44;;;;;;;13.05;4.30;;;;;;;;;;5067293;28;20108;-74
2023/02/11 20:49:14;;;;;;;12.27;3.03;;;;;;;;;;5066572;28;20044;-74
2023/02/11 20:51:43;;;;;;;13.95;5.07;;;;;;;;;;5062955;28;20126;-74
2023/02/11 20:54:12;;;;;;;9.02;3.78;;;;;;;;;;5068830;28;20041;-74
2023/02/11 20:56:41;;;;;;;7.85;3.15;;;;;;;;;;5061485;28;20049;-74
2023/02/11 20:59:12;;;;;;;8.25;3.45;;;;;;;;;;5086249;28;20416;-74
2023/02/11 21:01:42;;;;;;;5.30;2.63;;;;;;;;;;5082210;28;20443;-74
2023/02/11 21:04:12;;;;;;;12.80;3.03;;;;;;;;;;5087082;28;20048;-74
2023/02/11 21:06:42;;;;;;;7.35;2.85;;;;;;;;;;5085430;28;20499;-73
2023/02/11 21:09:12;;;;;;;10.40;2.58;;;;;;;;;;5065320;28;20049;-73
2023/02/11 21:11:40;;;;;;;6.80;2.83;;;;;;;;;;5063170;28;20052;-73
2023/02/11 21:14:10;;;;;;;9.15;2.30;;;;;;;;;;5069722;28;20481;-74
2023/02/11 21:16:39;;;;;;;8.80;2.50;;;;;;;;;;5061673;28;20078;-72
2023/02/11 21:19:08;;;;;;;8.13;3.35;;;;;;;;;;5064285;28;20064;-73
2023/02/11 21:21:37;;;;;;;7.97;3.90;;;;;;;;;;5062532;28;20480;-72
2023/02/11 21:24:06;;;;;;;10.10;2.22;;;;;;;;;;5057025;28;20058;-72
2023/02/11 21:26:34;;;;;;;7.68;3.97;;;;;;;;;;5062522;28;20049;-72
2023/02/11 21:29:03;;;;;;;6.47;3.08;;;;;;;;;;5049744;28;20409;-73
2023/02/11 21:31:33;;;;;;;7.03;2.95;;;;;;;;;;5057117;28;20720;-72
2023/02/11 21:34:02;;;;;;;4.82;2.90;;;;;;;;;;5053419;28;20076;-72
2023/02/11 21:36:30;;;;;;;8.07;4.32;;;;;;;;;;5055038;28;20055;-72
2023/02/11 21:39:00;;;;;;;9.88;4.82;;;;;;;;;;5065415;28;20051;-72
2023/02/11 21:41:29;;;;;;;6.18;2.72;;;;;;;;;;5058478;28;20049;-73
2023/02/11 21:43:57;;;;;;;9.35;2.20;;;;;;;;;;5062224;28;20045;-72
2023/02/11 21:46:25;;;;;;;9.02;3.13;;;;;;;;;;5059003;28;20052;-73
2023/02/11 21:48:55;;;;;;;4.70;2.03;;;;;;;;;;5057647;28;20052;-72
2023/02/11 21:51:24;;;;;;;5.88;2.95;;;;;;;;;;5062743;28;20057;-73
2023/02/11 21:53:53;;;;;;;3.83;2.38;;;;;;;;;;5067048;28;20040;-73
2023/02/11 21:56:22;;;;;;;3.75;2.67;;;;;;;;;;5064797;28;20136;-71